createdAt,value
2023-01-25T00:00:53.839Z,21.70
2023-01-25T00:03:21.691Z,24.40
2023-01-25T00:05:49.452Z,22.90
2023-01-25T00:08:17.548Z,20.37
2023-01-25T00:10:45.268Z,24.30
2023-01-25T00:13:13.027Z,20.17
2023-01-25T00:15:40.758Z,22.87
2023-01-25T00:18:09.860Z,23.40
2023-01-25T00:20:37.682Z,23.13
2023-01-25T00:23:05.476Z,25.40
2023-01-25T00:25:33.168Z,22.93
2023-01-25T00:28:00.889Z,22.73
2023-01-25T00:30:28.793Z,22.80
2023-01-25T00:33:04.002Z,23.63
2023-01-25T00:35:33.988Z,21.73
2023-01-25T00:38:03.878Z,23.77
2023-01-25T00:40:31.790Z,26.73
2023-01-25T00:43:00.788Z,23.73
2023-01-25T00:45:28.707Z,22.87
2023-01-25T00:47:57.299Z,23.40
2023-01-25T00:50:25.096Z,21.53
2023-01-25T00:52:54.197Z,25.13
2023-01-25T00:55:21.930Z,27.30
2023-01-25T00:57:49.730Z,26.67
2023-01-25T01:00:18.239Z,26.17
2023-01-25T01:02:46.015Z,25.60
2023-01-25T01:05:13.913Z,25.37
2023-01-25T01:07:41.712Z,23.60
2023-01-25T01:10:11.929Z,25.13
2023-01-25T01:12:39.665Z,26.57
2023-01-25T01:15:09.055Z,23.17
2023-01-25T01:17:36.977Z,26.30
2023-01-25T01:20:05.142Z,27.93
2023-01-25T01:22:32.936Z,27.60
2023-01-25T01:25:00.698Z,26.33
2023-01-25T01:27:29.920Z,24.57
2023-01-25T01:29:57.713Z,25.57
2023-01-25T01:32:25.762Z,25.13
2023-01-25T01:34:53.596Z,22.60
2023-01-25T01:37:21.336Z,20.80
2023-01-25T01:39:49.042Z,24.73
2023-01-25T01:42:16.829Z,22.97
2023-01-25T01:44:48.964Z,23.63
2023-01-25T01:47:21.788Z,23.37
2023-01-25T01:49:54.571Z,24.27
2023-01-25T01:52:29.283Z,22.57
2023-01-25T01:55:00.799Z,22.37
2023-01-25T01:57:34.767Z,25.73
2023-01-25T02:00:08.454Z,28.00
2023-01-25T02:02:36.821Z,24.73
2023-01-25T02:05:08.382Z,24.63
2023-01-25T02:07:38.711Z,24.23
2023-01-25T02:10:08.721Z,24.57
2023-01-25T02:12:37.960Z,24.10
2023-01-25T02:15:08.919Z,24.87
2023-01-25T02:17:39.886Z,28.40
2023-01-25T02:20:17.450Z,21.43
2023-01-25T02:22:51.965Z,23.20
2023-01-25T02:25:21.453Z,26.20
2023-01-25T02:27:54.144Z,25.87
2023-01-25T02:30:22.549Z,26.37
2023-01-25T02:32:50.336Z,25.17
2023-01-25T02:35:23.187Z,24.27
2023-01-25T02:37:51.407Z,25.77
2023-01-25T02:40:20.742Z,24.70
2023-01-25T02:42:48.547Z,28.53
2023-01-25T02:45:20.057Z,26.70
2023-01-25T02:47:48.692Z,29.70
2023-01-25T02:50:17.100Z,26.87
2023-01-25T02:52:44.809Z,25.70
2023-01-25T02:55:12.600Z,28.83
2023-01-25T02:57:41.798Z,27.87
2023-01-25T03:00:10.769Z,24.37
2023-01-25T03:02:38.621Z,25.40
2023-01-25T03:05:07.540Z,23.37
2023-01-25T03:07:35.446Z,28.17
2023-01-25T03:10:03.183Z,27.10
2023-01-25T03:12:30.942Z,28.73
2023-01-25T03:15:00.059Z,25.27
2023-01-25T03:17:27.825Z,27.73
2023-01-25T03:19:55.603Z,28.17
2023-01-25T03:22:23.361Z,28.70
2023-01-25T03:24:51.147Z,27.33
2023-01-25T03:27:19.347Z,26.70
2023-01-25T03:29:47.118Z,24.17
2023-01-25T03:32:16.276Z,27.47
2023-01-25T03:34:44.103Z,26.70
2023-01-25T03:37:12.001Z,25.83
2023-01-25T03:39:39.805Z,31.13
2023-01-25T03:42:08.021Z,23.53
2023-01-25T03:44:35.922Z,26.33
2023-01-25T03:47:03.983Z,26.50
2023-01-25T03:49:33.157Z,26.63
2023-01-25T03:52:00.884Z,28.10
2023-01-25T03:54:28.615Z,27.83
2023-01-25T03:56:56.419Z,28.03
2023-01-25T03:59:24.234Z,24.93
2023-01-25T04:01:52.465Z,25.83
2023-01-25T04:04:20.328Z,28.60
2023-01-25T04:06:49.440Z,27.20
2023-01-25T04:09:17.332Z,26.37
2023-01-25T04:11:45.144Z,25.00
2023-01-25T04:14:13.054Z,29.73
2023-01-25T04:16:41.016Z,28.00
2023-01-25T04:19:08.928Z,27.63
2023-01-25T04:21:36.752Z,27.80
2023-01-25T04:24:06.797Z,29.70
2023-01-25T04:26:34.614Z,29.20
2023-01-25T04:29:02.373Z,28.73
2023-01-25T04:31:30.207Z,29.37
2023-01-25T04:33:58.010Z,30.33
2023-01-25T04:36:25.697Z,31.57
2023-01-25T04:38:53.424Z,27.37
2023-01-25T04:41:26.866Z,29.07
2023-01-25T04:43:54.619Z,24.80
2023-01-25T04:46:22.385Z,29.23
2023-01-25T04:48:50.130Z,28.87
2023-01-25T04:51:17.912Z,28.20
2023-01-25T04:53:45.698Z,30.03
2023-01-25T04:56:13.536Z,29.07
2023-01-25T04:58:42.885Z,28.97
2023-01-25T05:01:10.878Z,29.27
2023-01-25T05:03:38.734Z,32.27
2023-01-25T05:06:06.795Z,32.20
2023-01-25T05:08:34.539Z,29.00
2023-01-25T05:11:02.313Z,28.10
2023-01-25T05:13:30.101Z,27.70
2023-01-25T05:15:59.246Z,32.23
2023-01-25T05:18:33.118Z,31.77
2023-01-25T05:21:27.125Z,32.73
2023-01-25T05:23:55.209Z,29.57
2023-01-25T05:26:40.267Z,33.47
2023-01-25T05:29:08.095Z,30.53
2023-01-25T05:31:37.245Z,28.63
2023-01-25T05:34:04.996Z,31.90
2023-01-25T05:36:32.803Z,29.53
2023-01-25T05:39:00.597Z,35.03
2023-01-25T05:41:28.416Z,30.40
2023-01-25T05:43:56.231Z,32.17
2023-01-25T05:46:24.116Z,32.87
2023-01-25T05:48:53.210Z,34.13
2023-01-25T05:51:21.044Z,33.63
2023-01-25T05:53:48.851Z,32.63
2023-01-25T05:56:16.660Z,31.73
2023-01-25T05:58:44.672Z,32.93
2023-01-25T06:01:12.739Z,29.87
2023-01-25T06:03:40.645Z,33.13
2023-01-25T06:06:09.854Z,29.87
2023-01-25T06:08:37.657Z,32.27
2023-01-25T06:11:08.872Z,30.00
2023-01-25T06:13:36.796Z,34.70
2023-01-25T06:16:04.783Z,31.80
2023-01-25T06:18:33.862Z,34.07
2023-01-25T06:21:02.928Z,32.73
2023-01-25T06:23:32.547Z,32.00
2023-01-25T06:26:01.272Z,33.00
2023-01-25T06:28:31.767Z,36.43
2023-01-25T06:31:05.550Z,34.80
2023-01-25T06:33:33.796Z,28.27
2023-01-25T06:36:02.679Z,30.13
2023-01-25T06:38:30.444Z,37.03
2023-01-25T06:41:02.260Z,28.57
2023-01-25T06:43:30.742Z,34.23
2023-01-25T06:45:59.657Z,33.50
2023-01-25T06:48:28.126Z,30.77
2023-01-25T06:50:57.244Z,33.43
2023-01-25T06:53:26.518Z,32.30
2023-01-25T06:56:02.437Z,32.17
2023-01-25T06:58:32.485Z,33.73
2023-01-25T07:01:05.212Z,34.30
2023-01-25T07:03:33.600Z,35.03
2023-01-25T07:06:01.900Z,32.97
2023-01-25T07:08:29.947Z,35.50
2023-01-25T07:10:58.780Z,30.07
2023-01-25T07:13:29.549Z,33.57
2023-01-25T07:15:59.264Z,36.40
2023-01-25T07:18:28.062Z,36.10
2023-01-25T07:20:55.897Z,32.33
2023-01-25T07:23:23.732Z,30.43
2023-01-25T07:25:52.155Z,31.27
2023-01-25T07:28:20.074Z,35.20
2023-01-25T07:30:49.542Z,34.30
2023-01-25T07:33:17.303Z,37.17
2023-01-25T07:35:45.164Z,33.50
2023-01-25T07:38:14.587Z,32.93
2023-01-25T07:40:43.010Z,33.77
2023-01-25T07:43:10.802Z,37.00
2023-01-25T07:45:38.639Z,38.73
2023-01-25T07:48:11.795Z,34.40
2023-01-25T07:50:39.705Z,36.90
2023-01-25T07:53:07.533Z,31.80
2023-01-25T07:55:35.849Z,30.77
2023-01-25T07:58:03.687Z,32.73
2023-01-25T08:00:31.464Z,36.57
2023-01-25T08:02:59.359Z,35.63
2023-01-25T08:05:28.645Z,35.30
2023-01-25T08:07:56.447Z,34.67
2023-01-25T08:10:24.199Z,34.67
2023-01-25T08:12:51.966Z,36.07
2023-01-25T08:15:19.714Z,29.53
2023-01-25T08:17:47.504Z,31.10
2023-01-25T08:20:15.541Z,29.90
2023-01-25T08:22:44.791Z,30.07
2023-01-25T08:25:12.578Z,28.17
2023-01-25T08:27:40.417Z,32.20
2023-01-25T08:30:09.692Z,27.30
2023-01-25T08:32:38.248Z,26.37
2023-01-25T08:35:07.570Z,29.70
2023-01-25T08:37:35.760Z,32.97
2023-01-25T08:40:05.767Z,29.43
2023-01-25T08:42:33.530Z,28.23
2023-01-25T08:45:02.700Z,27.67
2023-01-25T08:47:30.694Z,28.43
2023-01-25T08:49:58.608Z,28.37
2023-01-25T08:52:26.395Z,29.17
2023-01-25T08:54:54.141Z,27.27
2023-01-25T08:57:23.256Z,29.83
2023-01-25T08:59:51.067Z,30.03
2023-01-25T09:02:19.311Z,27.80
2023-01-25T09:04:47.154Z,31.40
2023-01-25T09:07:15.092Z,29.00
2023-01-25T09:09:42.841Z,30.13
2023-01-25T09:12:10.893Z,33.47
2023-01-25T09:14:40.811Z,29.30
2023-01-25T09:17:08.526Z,28.77
2023-01-25T09:19:36.275Z,29.10
2023-01-25T09:22:04.454Z,29.07
2023-01-25T09:24:36.984Z,35.07
2023-01-25T09:27:04.990Z,28.63
2023-01-25T09:29:32.728Z,31.90
2023-01-25T09:32:02.021Z,33.77
2023-01-25T09:34:29.861Z,30.57
2023-01-25T09:36:57.656Z,27.27
2023-01-25T09:39:25.602Z,29.73
2023-01-25T09:42:32.794Z,28.67
2023-01-25T09:45:12.675Z,27.03
2023-01-25T09:47:48.887Z,25.97
2023-01-25T09:50:35.183Z,25.90
2023-01-25T09:53:21.920Z,28.00
2023-01-25T09:55:54.239Z,27.17
2023-01-25T09:58:27.488Z,28.03
2023-01-25T10:01:14.461Z,30.20
2023-01-25T10:03:52.065Z,25.17
2023-01-25T10:06:23.662Z,35.67
2023-01-25T10:08:58.771Z,30.47
2023-01-25T10:11:29.018Z,27.23
2023-01-25T10:13:57.626Z,30.93
2023-01-25T10:16:32.829Z,30.67
2023-01-25T10:19:14.570Z,27.80
2023-01-25T10:21:45.338Z,31.97
2023-01-25T10:24:41.043Z,30.27
2023-01-25T10:27:23.055Z,31.50
2023-01-25T10:29:53.807Z,27.20
2023-01-25T10:32:27.255Z,29.33
2023-01-25T10:34:59.182Z,29.23
2023-01-25T10:37:29.321Z,36.10
2023-01-25T10:40:04.264Z,31.30
2023-01-25T10:42:39.149Z,30.33
2023-01-25T10:45:12.858Z,33.90
2023-01-25T10:47:43.816Z,30.27
2023-01-25T10:50:47.149Z,33.43
2023-01-25T10:53:33.916Z,27.93
2023-01-25T10:56:20.503Z,31.77
2023-01-25T10:58:50.079Z,26.03
2023-01-25T11:01:29.932Z,31.83
2023-01-25T11:03:58.218Z,30.30
2023-01-25T11:06:38.581Z,34.17
2023-01-25T11:09:32.912Z,37.03
2023-01-25T11:12:02.070Z,33.87
2023-01-25T11:14:31.685Z,30.17
2023-01-25T11:17:01.037Z,39.07
2023-01-25T11:19:34.303Z,36.97
2023-01-25T11:22:06.000Z,38.37
2023-01-25T11:24:36.056Z,39.77
2023-01-25T11:27:19.050Z,35.60
2023-01-25T11:29:47.930Z,37.13
2023-01-25T11:32:22.601Z,35.53
2023-01-25T11:34:51.257Z,33.27
2023-01-25T11:37:47.260Z,36.87
2023-01-25T11:40:22.380Z,33.13
2023-01-25T11:43:03.805Z,33.70
2023-01-25T11:46:08.712Z,34.67
2023-01-25T11:49:00.526Z,35.60
2023-01-25T11:51:34.653Z,34.90
2023-01-25T11:54:24.790Z,38.57
2023-01-25T11:56:58.989Z,34.83
2023-01-25T11:59:44.226Z,34.13
2023-01-25T12:02:33.234Z,32.10
2023-01-25T12:05:22.191Z,33.73
2023-01-25T12:07:59.967Z,35.67
2023-01-25T12:10:40.819Z,34.07
2023-01-25T12:13:19.584Z,31.20
2023-01-25T12:16:10.171Z,33.30
2023-01-25T12:19:02.086Z,37.53
2023-01-25T12:21:46.995Z,35.63
2023-01-25T12:24:29.443Z,27.60
2023-01-25T12:27:07.473Z,33.97
2023-01-25T12:29:40.067Z,33.03
2023-01-25T12:32:12.765Z,36.30
2023-01-25T12:34:44.315Z,36.23
2023-01-25T12:37:18.560Z,38.17
2023-01-25T12:39:50.612Z,36.50
2023-01-25T12:42:22.584Z,30.77
2023-01-25T12:44:56.847Z,31.43
2023-01-25T12:47:29.223Z,32.33
2023-01-25T12:50:05.926Z,30.80
2023-01-25T12:52:35.989Z,32.70
2023-01-25T12:55:06.367Z,34.53
2023-01-25T12:57:41.063Z,37.37
2023-01-25T13:00:18.845Z,38.80
2023-01-25T13:03:09.229Z,33.90
2023-01-25T13:05:43.081Z,31.63
2023-01-25T13:08:31.671Z,37.20
2023-01-25T13:11:11.169Z,33.47
2023-01-25T13:13:40.333Z,39.03
2023-01-25T13:16:37.570Z,38.23
2023-01-25T13:19:05.611Z,34.13
2023-01-25T13:21:42.052Z,37.07
2023-01-25T13:24:21.848Z,37.97
2023-01-25T13:27:00.601Z,35.87
2023-01-25T13:30:00.574Z,34.10
2023-01-25T13:33:03.518Z,34.97
2023-01-25T13:35:39.928Z,33.70
2023-01-25T13:38:29.391Z,38.70
2023-01-25T13:41:17.012Z,30.80
2023-01-25T13:43:53.557Z,34.63
2023-01-25T13:46:25.736Z,33.77
2023-01-25T13:49:00.812Z,34.37
2023-01-25T13:51:34.202Z,32.73
2023-01-25T13:54:02.107Z,32.43
2023-01-25T13:56:34.009Z,36.33
2023-01-25T13:59:02.083Z,35.23
2023-01-25T14:01:33.491Z,32.93
2023-01-25T14:04:04.189Z,36.07
2023-01-25T14:06:36.137Z,33.23
2023-01-25T14:09:07.760Z,34.27
2023-01-25T14:11:43.973Z,33.73
2023-01-25T14:14:21.182Z,38.47
2023-01-25T14:17:02.453Z,31.80
2023-01-25T14:19:31.365Z,32.30
2023-01-25T14:22:21.864Z,30.43
2023-01-25T14:25:04.099Z,30.80
2023-01-25T14:27:31.999Z,30.50
2023-01-25T14:29:59.832Z,32.07
2023-01-25T14:32:29.278Z,31.80
2023-01-25T14:34:57.399Z,31.80
2023-01-25T14:37:25.197Z,32.40
2023-01-25T14:39:53.339Z,34.33
2023-01-25T14:42:21.432Z,29.63
2023-01-25T14:44:49.713Z,34.50
2023-01-25T14:47:23.053Z,36.60
2023-01-25T14:49:52.153Z,33.40
2023-01-25T14:52:22.640Z,31.77
2023-01-25T14:54:53.654Z,32.23
2023-01-25T14:57:33.710Z,33.27
2023-01-25T15:00:04.033Z,28.03
2023-01-25T15:02:39.602Z,33.67
2023-01-25T15:05:19.686Z,30.77
2023-01-25T15:07:49.542Z,36.60
2023-01-25T15:10:19.993Z,32.20
2023-01-25T15:13:17.893Z,36.27
2023-01-25T15:15:54.511Z,38.73
2023-01-25T15:18:43.135Z,34.07
2023-01-25T15:21:14.020Z,35.20
2023-01-25T15:23:43.145Z,35.00
2023-01-25T15:26:19.166Z,39.47
2023-01-25T15:28:47.715Z,36.70
2023-01-25T15:31:18.823Z,35.70
2023-01-25T15:33:46.759Z,34.03
2023-01-25T15:36:17.656Z,36.20
2023-01-25T15:38:45.895Z,41.90
2023-01-25T15:41:14.657Z,41.43
2023-01-25T15:43:43.166Z,41.40
2023-01-25T15:46:17.822Z,39.90
2023-01-25T15:48:47.395Z,39.23
2023-01-25T15:51:17.039Z,41.47
2023-01-25T15:53:46.786Z,40.03
2023-01-25T15:56:18.565Z,37.27
2023-01-25T15:58:48.991Z,40.90
2023-01-25T16:01:16.944Z,42.27
2023-01-25T16:03:44.819Z,39.93
2023-01-25T16:06:29.627Z,41.67
2023-01-25T16:08:58.823Z,43.63
2023-01-25T16:11:26.841Z,44.47
2023-01-25T16:13:54.733Z,43.00
2023-01-25T16:16:24.905Z,41.87
2023-01-25T16:18:53.064Z,44.10
2023-01-25T16:21:22.159Z,42.23
2023-01-25T16:23:50.019Z,45.20
2023-01-25T16:26:21.605Z,42.97
2023-01-25T16:28:49.374Z,41.33
2023-01-25T16:31:31.255Z,45.73
2023-01-25T16:34:00.645Z,47.53
2023-01-25T16:36:31.441Z,45.67
2023-01-25T16:39:09.693Z,46.70
2023-01-25T16:41:38.137Z,46.87
2023-01-25T16:44:06.140Z,50.33
2023-01-25T16:46:34.301Z,46.23
2023-01-25T16:49:04.333Z,51.10
2023-01-25T16:51:34.347Z,44.00
2023-01-25T16:54:02.339Z,53.57
2023-01-25T16:56:32.038Z,50.83
2023-01-25T16:59:03.689Z,45.30
2023-01-25T17:01:32.144Z,52.33
2023-01-25T17:04:00.329Z,50.83
2023-01-25T17:06:30.417Z,52.37
2023-01-25T17:09:12.575Z,53.43
2023-01-25T17:11:49.716Z,52.10
2023-01-25T17:14:19.875Z,58.37
2023-01-25T17:16:48.409Z,56.10
2023-01-25T17:19:18.335Z,55.77
2023-01-25T17:21:46.669Z,57.77
2023-01-25T17:24:18.146Z,61.73
2023-01-25T17:26:46.036Z,62.57
2023-01-25T17:29:14.102Z,60.60
2023-01-25T17:31:44.167Z,60.80
2023-01-25T17:34:16.006Z,60.57
2023-01-25T17:36:44.676Z,59.53
2023-01-25T17:39:15.356Z,63.50
2023-01-25T17:41:45.165Z,61.70
2023-01-25T17:44:13.273Z,69.70
2023-01-25T17:46:41.579Z,63.30
2023-01-25T17:49:12.749Z,59.43
2023-01-25T17:51:40.625Z,63.93
2023-01-25T17:54:08.582Z,67.27
2023-01-25T17:56:39.227Z,61.97
2023-01-25T17:59:11.453Z,61.57
2023-01-25T18:01:42.529Z,61.07
2023-01-25T18:04:11.110Z,67.87
2023-01-25T18:06:38.938Z,66.60
2023-01-25T18:09:07.441Z,71.87
2023-01-25T18:11:37.907Z,69.13
2023-01-25T18:14:09.321Z,67.03
2023-01-25T18:16:38.774Z,70.00
2023-01-25T18:19:07.167Z,62.83
2023-01-25T18:21:35.886Z,69.23
2023-01-25T18:24:07.287Z,71.40
2023-01-25T18:26:37.941Z,71.37
2023-01-25T18:29:43.601Z,73.50
2023-01-25T18:32:11.408Z,65.37
2023-01-25T18:34:39.266Z,63.63
2023-01-25T18:37:18.821Z,58.63
2023-01-25T18:39:47.201Z,64.67
2023-01-25T18:42:15.393Z,60.37
2023-01-25T18:44:48.240Z,56.83
2023-01-25T18:47:18.509Z,57.40
2023-01-25T18:49:46.412Z,60.47
2023-01-25T18:52:14.275Z,67.13
2023-01-25T18:54:42.159Z,66.30
2023-01-25T18:57:12.051Z,62.33
2023-01-25T18:59:40.164Z,66.37
2023-01-25T19:02:11.997Z,63.63
2023-01-25T19:04:39.734Z,59.17
2023-01-25T19:07:07.823Z,63.40
2023-01-25T19:09:35.626Z,63.13
2023-01-25T19:12:03.360Z,67.63
2023-01-25T19:14:31.138Z,63.87
2023-01-25T19:16:58.986Z,59.57
2023-01-25T19:19:31.950Z,66.40
2023-01-25T19:21:59.754Z,64.33
2023-01-25T19:24:28.650Z,64.87
2023-01-25T19:26:56.471Z,72.10
2023-01-25T19:29:24.242Z,65.50
2023-01-25T19:31:51.931Z,62.37
2023-01-25T19:34:19.825Z,62.37
2023-01-25T19:36:50.088Z,61.63
2023-01-25T19:39:18.994Z,61.73
2023-01-25T19:41:47.121Z,67.53
2023-01-25T19:44:15.518Z,62.27
2023-01-25T19:46:44.213Z,61.37
2023-01-25T19:49:13.243Z,69.40
2023-01-25T19:51:44.416Z,59.00
2023-01-25T19:54:16.786Z,55.30
2023-01-25T19:56:46.449Z,60.80
2023-01-25T19:59:15.991Z,70.23
2023-01-25T20:01:45.188Z,56.30
2023-01-25T20:04:14.215Z,56.40
2023-01-25T20:06:42.558Z,54.97
2023-01-25T20:09:15.794Z,58.73
2023-01-25T20:11:43.885Z,59.63
2023-01-25T20:14:13.200Z,55.83
2023-01-25T20:16:41.015Z,51.37
2023-01-25T20:19:11.587Z,52.73
2023-01-25T20:21:39.766Z,56.90
2023-01-25T20:24:10.164Z,52.07
2023-01-25T20:26:42.939Z,49.33
2023-01-25T20:29:11.944Z,56.53
2023-01-25T20:31:41.600Z,58.03
2023-01-25T20:34:12.669Z,51.73
2023-01-25T20:36:40.654Z,56.30
2023-01-25T20:39:09.159Z,49.70
2023-01-25T20:41:36.881Z,54.93
2023-01-25T20:44:08.555Z,53.63
2023-01-25T20:46:38.776Z,56.37
2023-01-25T20:49:08.485Z,44.30
2023-01-25T20:51:36.333Z,55.80
2023-01-25T20:54:04.333Z,55.47
2023-01-25T20:56:32.727Z,53.93
2023-01-25T20:59:00.473Z,54.33
2023-01-25T21:01:33.865Z,58.70
2023-01-25T21:04:01.629Z,58.20
2023-01-25T21:06:29.566Z,48.27
2023-01-25T21:08:59.147Z,52.70
2023-01-25T21:11:27.116Z,55.20
2023-01-25T21:13:54.997Z,56.37
2023-01-25T21:16:23.426Z,54.13
2023-01-25T21:18:54.516Z,51.17
2023-01-25T21:21:25.870Z,50.43
2023-01-25T21:23:55.088Z,50.23
2023-01-25T21:26:26.533Z,49.87
2023-01-25T21:28:55.793Z,44.07
2023-01-25T21:31:25.089Z,44.70
2023-01-25T21:33:55.231Z,43.93
2023-01-25T21:36:23.849Z,42.70
2023-01-25T21:38:53.803Z,42.97
2023-01-25T21:41:24.409Z,44.00
2023-01-25T21:44:10.793Z,47.20
2023-01-25T21:46:39.172Z,41.50
2023-01-25T21:49:27.384Z,39.03
2023-01-25T21:51:56.508Z,37.13
2023-01-25T21:54:26.463Z,38.70
2023-01-25T21:56:55.970Z,37.00
2023-01-25T21:59:24.651Z,39.93
2023-01-25T22:01:53.515Z,35.83
2023-01-25T22:04:24.142Z,39.07
2023-01-25T22:06:54.371Z,38.47
2023-01-25T22:09:22.830Z,34.70
2023-01-25T22:11:50.960Z,35.97
2023-01-25T22:14:19.811Z,36.10
2023-01-25T22:16:47.588Z,32.13
2023-01-25T22:19:15.453Z,37.43
2023-01-25T22:21:45.386Z,35.17
2023-01-25T22:24:13.591Z,30.93
2023-01-25T22:26:48.453Z,33.80
2023-01-25T22:29:16.260Z,29.70
2023-01-25T22:31:44.129Z,33.53
2023-01-25T22:34:12.211Z,26.50
2023-01-25T22:36:40.028Z,28.60
2023-01-25T22:39:09.185Z,27.03
2023-01-25T22:41:38.467Z,26.03
2023-01-25T22:44:06.615Z,30.90
2023-01-25T22:46:35.154Z,28.27
2023-01-25T22:49:03.593Z,28.37
2023-01-25T22:51:31.676Z,28.33
2023-01-25T22:54:00.564Z,26.30
2023-01-25T22:56:31.866Z,29.00
2023-01-25T22:59:00.984Z,27.60
2023-01-25T23:01:30.853Z,30.27
2023-01-25T23:03:58.867Z,22.97
2023-01-25T23:06:28.422Z,25.03
2023-01-25T23:08:57.403Z,28.13
2023-01-25T23:11:32.051Z,29.83
2023-01-25T23:14:18.829Z,26.63
2023-01-25T23:16:47.013Z,26.47
2023-01-25T23:19:13.801Z,25.57
2023-01-25T23:21:42.301Z,28.23
2023-01-25T23:24:10.807Z,26.10
2023-01-25T23:26:38.968Z,30.57
2023-01-25T23:29:10.548Z,24.43
2023-01-25T23:31:38.462Z,25.17
2023-01-25T23:34:07.814Z,24.63
2023-01-25T23:36:38.679Z,25.63
2023-01-25T23:39:06.892Z,24.13
2023-01-25T23:41:35.213Z,23.17
2023-01-25T23:44:02.907Z,24.70
2023-01-25T23:46:32.030Z,23.47
2023-01-25T23:48:59.763Z,22.60
2023-01-25T23:51:27.498Z,24.07
2023-01-25T23:53:55.869Z,24.73
2023-01-25T23:56:23.699Z,21.57
2023-01-25T23:58:51.502Z,23.67
